createdAt,value
2022-11-08T00:02:26.774Z,16.46
2022-11-08T00:04:53.626Z,16.51
2022-11-08T00:07:39.258Z,16.54
2022-11-08T00:10:25.231Z,16.56
2022-11-08T00:13:10.864Z,16.53
2022-11-08T00:15:39.014Z,16.53
2022-11-08T00:18:07.280Z,16.60
2022-11-08T00:20:34.934Z,16.62
2022-11-08T00:23:01.819Z,16.63
2022-11-08T00:25:28.584Z,16.62
2022-11-08T00:27:55.457Z,16.61
2022-11-08T00:30:22.239Z,16.56
2022-11-08T00:32:48.910Z,16.47
2022-11-08T00:35:15.911Z,16.41
2022-11-08T00:37:42.755Z,16.33
2022-11-08T00:40:10.286Z,16.34
2022-11-08T00:42:37.204Z,16.19
2022-11-08T00:45:04.363Z,16.31
2022-11-08T00:47:31.214Z,16.29
2022-11-08T00:49:57.979Z,16.29
2022-11-08T00:52:24.690Z,16.24
2022-11-08T00:54:51.616Z,16.27
2022-11-08T00:57:18.418Z,16.22
2022-11-08T00:59:45.151Z,16.25
2022-11-08T01:02:11.951Z,16.20
2022-11-08T01:04:38.760Z,16.20
2022-11-08T01:07:05.447Z,16.18
2022-11-08T01:09:32.342Z,16.23
2022-11-08T01:11:59.165Z,16.21
2022-11-08T01:14:25.851Z,16.28
2022-11-08T01:16:52.608Z,16.27
2022-11-08T01:19:19.507Z,16.31
2022-11-08T01:21:47.243Z,16.34
2022-11-08T01:24:14.083Z,16.35
2022-11-08T01:26:41.014Z,16.42
2022-11-08T01:29:07.860Z,16.32
2022-11-08T01:31:34.571Z,16.49
2022-11-08T01:34:01.568Z,16.53
2022-11-08T01:36:29.280Z,16.50
2022-11-08T01:38:58.114Z,16.50
2022-11-08T01:41:26.508Z,16.51
2022-11-08T01:43:57.694Z,16.46
2022-11-08T01:46:33.565Z,16.49
2022-11-08T01:49:27.298Z,16.43
2022-11-08T01:52:10.998Z,16.48
2022-11-08T01:54:59.040Z,16.40
2022-11-08T01:57:48.101Z,16.41
2022-11-08T02:00:16.944Z,16.47
2022-11-08T02:02:46.046Z,16.43
2022-11-08T02:05:26.047Z,16.40
2022-11-08T02:07:55.721Z,16.22
2022-11-08T02:10:29.945Z,16.38
2022-11-08T02:12:57.368Z,16.44
2022-11-08T02:15:25.496Z,16.47
2022-11-08T02:17:54.012Z,16.47
2022-11-08T02:20:21.249Z,16.48
2022-11-08T02:23:10.839Z,16.41
2022-11-08T02:25:37.541Z,16.25
2022-11-08T02:28:04.475Z,16.44
2022-11-08T02:30:36.142Z,16.42
2022-11-08T02:33:23.183Z,16.40
2022-11-08T02:35:54.955Z,16.29
2022-11-08T02:38:23.068Z,16.45
2022-11-08T02:40:51.025Z,16.44
2022-11-08T02:43:18.379Z,16.47
2022-11-08T02:45:45.842Z,16.49
2022-11-08T02:48:13.133Z,16.51
2022-11-08T02:50:40.649Z,16.45
2022-11-08T02:53:08.293Z,16.49
2022-11-08T02:55:35.487Z,16.48
2022-11-08T02:58:03.126Z,16.45
2022-11-08T03:00:30.130Z,16.48
2022-11-08T03:02:58.234Z,16.47
2022-11-08T03:05:26.854Z,16.53
2022-11-08T03:07:54.346Z,16.41
2022-11-08T03:10:22.955Z,16.57
2022-11-08T03:13:01.495Z,16.56
2022-11-08T03:15:29.471Z,16.62
2022-11-08T03:17:57.224Z,16.64
2022-11-08T03:20:29.563Z,16.62
2022-11-08T03:23:04.314Z,16.68
2022-11-08T03:25:31.686Z,16.67
2022-11-08T03:28:03.060Z,16.56
2022-11-08T03:30:30.118Z,16.68
2022-11-08T03:32:56.970Z,16.68
2022-11-08T03:35:23.735Z,16.70
2022-11-08T03:37:55.283Z,16.72
2022-11-08T03:40:23.067Z,16.67
2022-11-08T03:42:50.366Z,16.69
2022-11-08T03:45:17.244Z,16.70
2022-11-08T03:47:46.491Z,16.69
2022-11-08T03:50:15.452Z,16.61
2022-11-08T03:52:42.884Z,16.65
2022-11-08T03:55:13.232Z,16.62
2022-11-08T03:57:40.860Z,16.53
2022-11-08T04:00:10.228Z,16.58
2022-11-08T04:02:37.385Z,16.44
2022-11-08T04:05:05.468Z,16.49
2022-11-08T04:07:32.329Z,16.34
2022-11-08T04:09:59.178Z,16.33
2022-11-08T04:12:44.224Z,16.35
2022-11-08T04:15:14.985Z,16.32
2022-11-08T04:18:05.504Z,16.30
2022-11-08T04:20:51.412Z,16.25
2022-11-08T04:23:18.952Z,16.28
2022-11-08T04:25:45.719Z,16.32
2022-11-08T04:28:12.492Z,16.34
2022-11-08T04:30:39.199Z,16.39
2022-11-08T04:33:07.155Z,16.25
2022-11-08T04:35:34.150Z,16.34
2022-11-08T04:38:02.499Z,16.35
2022-11-08T04:40:31.754Z,16.33
2022-11-08T04:42:58.615Z,16.26
2022-11-08T04:45:25.297Z,16.40
2022-11-08T04:47:52.032Z,16.40
2022-11-08T04:50:18.816Z,16.37
2022-11-08T04:52:52.270Z,16.40
2022-11-08T04:55:19.835Z,16.37
2022-11-08T04:57:47.131Z,16.34
2022-11-08T05:00:14.706Z,16.40
2022-11-08T05:02:41.777Z,16.29
2022-11-08T05:05:09.757Z,16.34
2022-11-08T05:07:36.456Z,16.23
2022-11-08T05:10:03.664Z,16.29
2022-11-08T05:12:30.397Z,16.41
2022-11-08T05:14:57.148Z,16.38
2022-11-08T05:17:23.921Z,16.34
2022-11-08T05:20:09.454Z,16.22
2022-11-08T05:22:54.937Z,16.40
2022-11-08T05:25:21.629Z,16.28
2022-11-08T05:27:48.324Z,16.28
2022-11-08T05:30:15.299Z,16.34
2022-11-08T05:32:42.242Z,16.31
2022-11-08T05:35:09.133Z,16.34
2022-11-08T05:37:35.869Z,16.30
2022-11-08T05:40:02.571Z,16.41
2022-11-08T05:42:29.550Z,16.44
2022-11-08T05:44:56.338Z,16.47
2022-11-08T05:47:23.044Z,16.46
2022-11-08T05:49:49.785Z,16.49
2022-11-08T05:52:16.584Z,16.50
2022-11-08T05:54:43.263Z,16.50
2022-11-08T05:57:10.026Z,16.55
2022-11-08T05:59:36.771Z,16.55
2022-11-08T06:02:03.777Z,16.51
2022-11-08T06:04:30.707Z,16.54
2022-11-08T06:06:57.504Z,16.50
2022-11-08T06:09:24.312Z,16.56
2022-11-08T06:11:51.052Z,16.48
2022-11-08T06:14:18.017Z,16.51
2022-11-08T06:16:44.759Z,16.45
2022-11-08T06:19:11.446Z,16.33
2022-11-08T06:21:38.390Z,16.19
2022-11-08T06:24:05.617Z,15.93
2022-11-08T06:26:32.380Z,15.98
2022-11-08T06:28:59.186Z,15.94
2022-11-08T06:31:25.879Z,15.93
2022-11-08T06:33:52.697Z,15.88
2022-11-08T06:36:21.383Z,15.67
2022-11-08T06:38:48.104Z,15.72
2022-11-08T06:41:19.620Z,15.66
2022-11-08T06:43:46.839Z,15.64
2022-11-08T06:46:13.668Z,15.61
2022-11-08T06:48:40.583Z,15.67
2022-11-08T06:51:07.616Z,15.71
2022-11-08T06:53:34.510Z,15.72
2022-11-08T06:56:02.205Z,15.81
2022-11-08T06:58:29.683Z,15.80
2022-11-08T07:00:56.510Z,15.79
2022-11-08T07:03:23.241Z,15.92
2022-11-08T07:05:50.051Z,16.00
2022-11-08T07:08:22.321Z,16.03
2022-11-08T07:10:50.234Z,16.06
2022-11-08T07:13:17.375Z,16.05
2022-11-08T07:15:45.344Z,16.10
2022-11-08T07:18:14.457Z,16.09
2022-11-08T07:20:42.836Z,16.06
2022-11-08T07:23:10.730Z,16.03
2022-11-08T07:25:38.392Z,15.98
2022-11-08T07:28:07.397Z,15.71
2022-11-08T07:30:35.523Z,15.73
2022-11-08T07:33:02.819Z,15.71
2022-11-08T07:35:30.084Z,15.56
2022-11-08T07:37:57.070Z,15.51
2022-11-08T07:40:24.216Z,15.38
2022-11-08T07:43:11.253Z,15.45
2022-11-08T07:45:38.068Z,15.38
2022-11-08T07:48:12.025Z,15.38
2022-11-08T07:50:40.821Z,15.37
2022-11-08T07:53:07.539Z,15.35
2022-11-08T07:55:37.187Z,15.38
2022-11-08T07:58:04.407Z,15.28
2022-11-08T08:00:31.767Z,15.33
2022-11-08T08:03:02.261Z,15.33
2022-11-08T08:05:34.537Z,15.37
2022-11-08T08:08:02.571Z,15.43
2022-11-08T08:10:30.681Z,15.37
2022-11-08T08:12:58.349Z,15.44
2022-11-08T08:15:25.820Z,15.41
2022-11-08T08:17:52.852Z,15.44
2022-11-08T08:20:20.159Z,15.37
2022-11-08T08:22:48.486Z,15.31
2022-11-08T08:25:16.158Z,15.23
2022-11-08T08:27:53.472Z,15.19
2022-11-08T08:30:20.639Z,15.12
2022-11-08T08:33:02.169Z,15.21
2022-11-08T08:35:36.393Z,15.15
2022-11-08T08:38:04.794Z,14.97
2022-11-08T08:40:32.464Z,15.13
2022-11-08T08:43:01.140Z,15.09
2022-11-08T08:45:28.239Z,15.12
2022-11-08T08:47:56.982Z,15.10
2022-11-08T08:50:25.618Z,15.14
2022-11-08T08:52:52.507Z,15.14
2022-11-08T08:55:19.420Z,15.25
2022-11-08T08:57:47.702Z,15.25
2022-11-08T09:03:04.934Z,15.39
2022-11-08T09:05:32.690Z,15.48
2022-11-08T09:07:59.543Z,15.60
2022-11-08T09:10:27.210Z,15.59
2022-11-08T09:12:54.369Z,15.71
2022-11-08T09:15:21.481Z,15.74
2022-11-08T09:17:48.279Z,15.83
2022-11-08T09:20:15.167Z,15.94
2022-11-08T09:22:42.094Z,15.98
2022-11-08T09:25:10.619Z,16.05
2022-11-08T09:27:37.374Z,16.05
2022-11-08T09:30:05.252Z,16.26
2022-11-08T09:32:54.339Z,16.44
2022-11-08T09:35:19.515Z,16.48
2022-11-08T09:37:49.680Z,16.59
2022-11-08T09:40:33.188Z,16.61
2022-11-08T09:43:38.196Z,16.64
2022-11-08T09:46:09.548Z,16.76
2022-11-08T09:48:40.983Z,16.81
2022-11-08T09:51:13.079Z,16.74
2022-11-08T09:53:54.267Z,16.72
2022-11-08T09:56:38.311Z,16.72
2022-11-08T09:59:33.704Z,16.77
2022-11-08T10:02:00.665Z,16.90
2022-11-08T10:04:33.591Z,16.89
2022-11-08T10:07:39.151Z,16.78
2022-11-08T10:10:27.666Z,16.73
2022-11-08T10:13:38.333Z,16.65
2022-11-08T10:16:39.556Z,16.68
2022-11-08T10:19:17.195Z,16.59
2022-11-08T10:22:05.613Z,16.70
2022-11-08T10:24:36.836Z,16.78
2022-11-08T10:27:14.941Z,16.71
2022-11-08T10:29:44.977Z,16.69
2022-11-08T10:32:23.337Z,16.40
2022-11-08T10:34:59.194Z,16.55
2022-11-08T10:37:27.801Z,16.53
2022-11-08T10:39:59.669Z,16.52
2022-11-08T10:42:44.491Z,16.47
2022-11-08T10:45:11.253Z,16.45
2022-11-08T10:47:39.534Z,16.48
2022-11-08T10:50:18.241Z,16.50
2022-11-08T10:52:52.412Z,16.59
2022-11-08T10:55:38.597Z,16.64
2022-11-08T10:58:29.376Z,16.55
2022-11-08T11:01:01.831Z,16.55
2022-11-08T11:03:31.322Z,16.49
2022-11-08T11:06:04.285Z,16.42
2022-11-08T11:08:31.836Z,16.44
2022-11-08T11:11:23.758Z,16.37
2022-11-08T11:14:22.876Z,16.42
2022-11-08T11:17:07.763Z,16.43
2022-11-08T11:19:34.978Z,16.48
2022-11-08T11:22:09.526Z,16.42
2022-11-08T11:24:46.433Z,16.44
2022-11-08T11:27:24.157Z,16.45
2022-11-08T11:30:21.380Z,16.40
2022-11-08T11:33:25.429Z,16.34
2022-11-08T11:35:57.837Z,16.33
2022-11-08T11:38:36.748Z,16.34
2022-11-08T11:41:37.456Z,16.13
2022-11-08T11:44:21.952Z,16.13
2022-11-08T11:46:58.594Z,16.18
2022-11-08T11:49:29.396Z,16.20
2022-11-08T11:51:57.083Z,16.18
2022-11-08T11:54:30.303Z,16.14
2022-11-08T11:57:01.888Z,16.20
2022-11-08T11:59:34.648Z,16.30
2022-11-08T12:02:12.809Z,16.49
2022-11-08T12:04:39.615Z,16.56
2022-11-08T12:07:15.461Z,16.48
2022-11-08T12:10:13.261Z,16.32
2022-11-08T12:12:45.609Z,16.30
2022-11-08T12:15:21.287Z,16.26
2022-11-08T12:17:58.349Z,16.23
2022-11-08T12:20:43.682Z,16.19
2022-11-08T12:23:10.367Z,16.25
2022-11-08T12:26:21.127Z,16.22
2022-11-08T12:29:12.560Z,16.13
2022-11-08T12:32:04.677Z,16.23
2022-11-08T12:34:49.800Z,16.15
2022-11-08T12:37:35.037Z,16.19
2022-11-08T12:40:33.925Z,16.12
2022-11-08T12:43:00.677Z,16.32
2022-11-08T12:45:36.306Z,16.27
2022-11-08T12:48:23.783Z,16.25
2022-11-08T12:51:02.681Z,16.21
2022-11-08T12:53:54.267Z,16.24
2022-11-08T12:56:25.587Z,16.26
2022-11-08T12:58:54.817Z,16.28
2022-11-08T13:01:23.174Z,16.27
2022-11-08T13:04:20.367Z,16.20
2022-11-08T13:06:56.767Z,16.21
2022-11-08T13:09:44.266Z,16.18
2022-11-08T13:12:20.240Z,16.23
2022-11-08T13:14:47.512Z,16.15
2022-11-08T13:17:26.292Z,16.18
2022-11-08T13:19:59.562Z,16.23
2022-11-08T13:22:30.345Z,16.19
2022-11-08T13:25:27.720Z,16.16
2022-11-08T13:27:54.674Z,16.18
2022-11-08T13:30:21.407Z,16.25
2022-11-08T13:33:00.548Z,16.17
2022-11-08T13:35:45.957Z,16.19
2022-11-08T13:39:03.359Z,16.05
2022-11-08T13:41:30.225Z,16.22
2022-11-08T13:43:58.952Z,16.23
2022-11-08T13:46:29.660Z,16.33
2022-11-08T13:49:05.556Z,16.40
2022-11-08T13:51:34.096Z,16.48
2022-11-08T13:54:26.539Z,16.50
2022-11-08T13:56:57.685Z,16.45
2022-11-08T13:59:30.699Z,16.55
2022-11-08T14:01:59.540Z,16.62
2022-11-08T14:04:40.465Z,16.63
2022-11-08T14:07:28.029Z,16.65
2022-11-08T14:10:17.900Z,16.75
2022-11-08T14:12:55.471Z,16.95
2022-11-08T14:15:22.346Z,16.98
2022-11-08T14:18:04.306Z,16.94
2022-11-08T14:20:43.087Z,16.98
2022-11-08T14:23:18.850Z,17.14
2022-11-08T14:26:03.148Z,17.13
2022-11-08T14:28:33.785Z,17.29
2022-11-08T14:31:03.793Z,17.39
2022-11-08T14:33:31.415Z,17.31
2022-11-08T14:36:08.344Z,17.68
2022-11-08T14:39:05.800Z,17.86
2022-11-08T14:41:33.824Z,18.01
2022-11-08T14:44:02.741Z,18.11
2022-11-08T14:46:39.411Z,18.01
2022-11-08T14:49:10.909Z,17.89
2022-11-08T14:51:38.121Z,17.92
2022-11-08T14:54:17.274Z,17.90
2022-11-08T14:56:45.225Z,17.97
2022-11-08T14:59:13.632Z,17.97
2022-11-08T15:01:43.941Z,17.93
2022-11-08T15:04:17.115Z,17.74
2022-11-08T15:06:47.423Z,17.79
2022-11-08T15:09:34.069Z,17.65
2022-11-08T15:12:04.825Z,17.55
2022-11-08T15:14:35.841Z,17.55
2022-11-08T15:17:03.867Z,17.52
2022-11-08T15:19:44.625Z,17.50
2022-11-08T15:22:30.919Z,17.43
2022-11-08T15:25:19.468Z,17.45
2022-11-08T15:27:57.514Z,17.48
2022-11-08T15:30:30.472Z,17.55
2022-11-08T15:32:57.344Z,17.61
2022-11-08T15:35:35.063Z,17.61
2022-11-08T15:38:05.021Z,17.71
2022-11-08T15:40:32.599Z,17.48
2022-11-08T15:43:00.979Z,17.67
2022-11-08T15:45:32.322Z,17.77
2022-11-08T15:48:08.230Z,17.75
2022-11-08T15:50:35.017Z,17.80
2022-11-08T15:53:03.717Z,17.85
2022-11-08T15:55:40.207Z,17.83
2022-11-08T15:58:21.465Z,17.83
2022-11-08T16:00:49.654Z,17.87
2022-11-08T16:03:16.387Z,17.89
2022-11-08T16:05:43.310Z,17.87
2022-11-08T16:08:10.233Z,17.86
2022-11-08T16:10:40.402Z,17.80
2022-11-08T16:13:09.702Z,17.70
2022-11-08T16:15:38.278Z,17.57
2022-11-08T16:18:05.066Z,17.49
2022-11-08T16:20:36.413Z,17.46
2022-11-08T16:23:05.877Z,17.38
2022-11-08T16:25:49.195Z,17.16
2022-11-08T16:28:22.172Z,17.28
2022-11-08T16:30:49.060Z,17.25
2022-11-08T16:33:27.589Z,17.21
2022-11-08T16:35:55.757Z,17.21
2022-11-08T16:38:29.282Z,17.12
2022-11-08T16:40:56.056Z,17.06
2022-11-08T16:43:22.748Z,16.98
2022-11-08T16:46:06.968Z,16.98
2022-11-08T16:48:36.761Z,16.93
2022-11-08T16:51:06.398Z,16.91
2022-11-08T16:53:35.454Z,16.89
2022-11-08T16:56:02.208Z,16.85
2022-11-08T16:58:29.096Z,16.80
2022-11-08T17:00:57.313Z,16.79
2022-11-08T17:03:26.077Z,16.79
2022-11-08T17:05:54.181Z,16.76
2022-11-08T17:08:21.945Z,16.74
2022-11-08T17:10:48.878Z,16.74
2022-11-08T17:13:18.092Z,16.77
2022-11-08T17:15:45.437Z,16.75
2022-11-08T17:18:14.708Z,16.72
2022-11-08T17:20:41.848Z,16.64
2022-11-08T17:23:09.232Z,16.64
2022-11-08T17:25:40.017Z,16.62
2022-11-08T17:28:07.730Z,16.62
2022-11-08T17:30:35.420Z,16.61
2022-11-08T17:33:02.212Z,16.53
2022-11-08T17:35:28.972Z,16.55
2022-11-08T17:37:56.260Z,16.32
2022-11-08T17:40:23.168Z,16.47
2022-11-08T17:42:49.856Z,16.44
2022-11-08T17:45:16.575Z,16.39
2022-11-08T17:47:43.463Z,16.38
2022-11-08T17:50:10.509Z,16.32
2022-11-08T17:52:37.645Z,16.31
2022-11-08T17:55:04.953Z,16.17
2022-11-08T17:57:31.639Z,16.24
2022-11-08T17:59:58.482Z,16.23
2022-11-08T18:02:27.624Z,16.18
2022-11-08T18:04:55.007Z,16.17
2022-11-08T18:07:21.860Z,16.17
2022-11-08T18:09:48.787Z,16.16
2022-11-08T18:12:15.803Z,16.15
2022-11-08T18:14:42.549Z,16.11
2022-11-08T18:17:09.404Z,16.12
2022-11-08T18:19:37.343Z,16.08
2022-11-08T18:22:04.851Z,16.08
2022-11-08T18:24:31.928Z,16.10
2022-11-08T18:26:58.914Z,16.07
2022-11-08T18:29:25.653Z,16.02
2022-11-08T18:31:52.566Z,15.98
2022-11-08T18:34:19.755Z,16.02
2022-11-08T18:36:49.000Z,16.00
2022-11-08T18:39:19.466Z,15.93
2022-11-08T18:41:46.315Z,15.95
2022-11-08T18:44:12.999Z,15.95
2022-11-08T18:46:43.151Z,15.93
2022-11-08T18:49:10.445Z,15.90
2022-11-08T18:51:37.159Z,15.90
2022-11-08T18:54:04.115Z,15.86
2022-11-08T18:56:30.897Z,15.87
2022-11-08T18:58:57.716Z,15.86
2022-11-08T19:01:24.768Z,15.78
2022-11-08T19:03:51.513Z,15.84
2022-11-08T19:06:19.497Z,15.81
2022-11-08T19:08:46.435Z,15.83
2022-11-08T19:11:14.561Z,15.80
2022-11-08T19:13:41.779Z,15.77
2022-11-08T19:16:15.178Z,15.86
2022-11-08T19:18:43.061Z,15.93
2022-11-08T19:21:18.963Z,15.94
2022-11-08T19:23:46.547Z,15.92
2022-11-08T19:26:19.201Z,15.64
2022-11-08T19:28:46.755Z,16.01
2022-11-08T19:31:15.555Z,16.06
2022-11-08T19:33:42.347Z,16.07
2022-11-08T19:36:13.223Z,16.06
2022-11-08T19:38:40.562Z,16.14
2022-11-08T19:41:12.573Z,16.16
2022-11-08T19:43:41.227Z,16.11
2022-11-08T19:46:11.823Z,16.16
2022-11-08T19:48:40.853Z,16.14
2022-11-08T19:51:13.755Z,16.09
2022-11-08T19:53:41.282Z,16.09
2022-11-08T19:56:10.657Z,16.05
2022-11-08T19:58:38.626Z,15.95
2022-11-08T20:01:18.194Z,16.06
2022-11-08T20:03:51.424Z,15.98
2022-11-08T20:06:20.801Z,16.02
2022-11-08T20:09:00.518Z,16.00
2022-11-08T20:11:30.521Z,16.03
2022-11-08T20:13:58.709Z,15.72
2022-11-08T20:16:30.355Z,15.85
2022-11-08T20:19:02.637Z,15.82
2022-11-08T20:21:32.152Z,16.00
2022-11-08T20:24:05.975Z,15.99
2022-11-08T20:26:34.926Z,16.03
2022-11-08T20:29:01.676Z,16.03
2022-11-08T20:31:28.706Z,16.03
2022-11-08T20:33:56.183Z,16.11
2022-11-08T20:36:25.187Z,16.15
2022-11-08T20:38:59.900Z,16.18
2022-11-08T20:41:30.115Z,16.22
2022-11-08T20:43:59.831Z,16.19
2022-11-08T20:46:26.636Z,16.23
2022-11-08T20:49:00.356Z,16.24
2022-11-08T20:51:29.271Z,16.24
2022-11-08T20:53:57.144Z,16.22
2022-11-08T20:56:24.882Z,16.16
2022-11-08T20:58:52.686Z,16.03
2022-11-08T21:01:25.217Z,15.92
2022-11-08T21:03:52.843Z,15.73
2022-11-08T21:06:24.446Z,15.82
2022-11-08T21:09:01.929Z,15.84
2022-11-08T21:11:34.733Z,15.75
2022-11-08T21:14:02.514Z,15.77
2022-11-08T21:16:33.104Z,15.82
2022-11-08T21:19:05.570Z,15.85
2022-11-08T21:21:33.269Z,15.72
2022-11-08T21:24:00.148Z,15.86
2022-11-08T21:26:27.162Z,15.82
2022-11-08T21:28:54.081Z,15.82
2022-11-08T21:31:20.897Z,15.84
2022-11-08T21:33:48.013Z,15.82
2022-11-08T21:36:15.552Z,15.84
2022-11-08T21:38:42.247Z,15.80
2022-11-08T21:41:11.036Z,15.87
2022-11-08T21:43:39.826Z,15.87
2022-11-08T21:46:20.592Z,15.85
2022-11-08T21:48:52.773Z,15.81
2022-11-08T21:51:19.503Z,15.85
2022-11-08T21:53:54.113Z,15.77
2022-11-08T21:56:22.870Z,15.86
2022-11-08T21:58:49.639Z,15.86
2022-11-08T22:01:16.967Z,15.90
2022-11-08T22:03:43.827Z,15.88
2022-11-08T22:06:10.592Z,15.86
2022-11-08T22:08:37.387Z,15.86
2022-11-08T22:11:04.218Z,15.80
2022-11-08T22:13:30.965Z,15.80
2022-11-08T22:15:57.714Z,15.73
2022-11-08T22:18:36.749Z,15.65
2022-11-08T22:21:28.562Z,15.63
2022-11-08T22:23:55.511Z,15.38
2022-11-08T22:26:22.278Z,15.45
2022-11-08T22:28:49.070Z,15.51
2022-11-08T22:31:16.057Z,15.56
2022-11-08T22:33:42.815Z,15.41
2022-11-08T22:36:09.781Z,15.58
2022-11-08T22:38:36.566Z,15.61
2022-11-08T22:41:03.391Z,15.61
2022-11-08T22:43:30.212Z,15.57
2022-11-08T22:45:56.975Z,15.58
2022-11-08T22:48:23.818Z,15.63
2022-11-08T22:50:50.563Z,15.63
2022-11-08T22:53:17.706Z,15.59
2022-11-08T22:55:45.266Z,15.54
2022-11-08T22:58:12.810Z,15.49
2022-11-08T23:00:40.680Z,15.45
2022-11-08T23:03:07.535Z,15.51
2022-11-08T23:05:34.247Z,15.47
2022-11-08T23:08:01.016Z,15.43
2022-11-08T23:10:27.854Z,15.33
2022-11-08T23:13:13.252Z,15.31
2022-11-08T23:15:58.917Z,15.22
2022-11-08T23:18:27.455Z,15.03
2022-11-08T23:21:13.208Z,15.17
2022-11-08T23:23:58.758Z,15.05
2022-11-08T23:27:01.300Z,15.04
2022-11-08T23:29:46.304Z,15.03
2022-11-08T23:32:13.227Z,14.98
2022-11-08T23:34:39.929Z,15.02
2022-11-08T23:37:06.677Z,14.99
2022-11-08T23:39:33.494Z,14.99
2022-11-08T23:42:19.070Z,15.00
2022-11-08T23:44:45.869Z,14.97
2022-11-08T23:47:12.572Z,14.93
2022-11-08T23:49:39.292Z,14.91
2022-11-08T23:52:06.084Z,15.01
2022-11-08T23:54:32.809Z,14.88
2022-11-08T23:56:59.931Z,15.04
2022-11-08T23:59:26.812Z,15.09
